createdAt,value
2022-09-12T00:25:52.949Z,11.56
2022-09-12T00:55:52.993Z,11.19
2022-09-12T01:25:52.969Z,11
2022-09-12T01:55:52.970Z,10.63
2022-09-12T02:25:52.970Z,10.44
2022-09-12T02:55:53.067Z,10.31
2022-09-12T03:25:52.980Z,10.13
2022-09-12T03:55:52.970Z,10.06
2022-09-12T04:25:52.979Z,9.94
2022-09-12T04:55:52.977Z,9.75
2022-09-12T05:25:53.004Z,10.13
2022-09-12T05:55:52.999Z,10.75
2022-09-12T06:25:52.992Z,11.69
2022-09-12T06:55:52.995Z,12.38
2022-09-12T07:25:53.002Z,13.31
2022-09-12T07:55:52.993Z,14.44
2022-09-12T08:25:53.023Z,14
2022-09-12T08:55:53.036Z,14.5
2022-09-12T09:25:53.022Z,15.56
2022-09-12T09:55:53.034Z,16.63
2022-09-12T10:25:53.037Z,18.38
2022-09-12T10:55:53.045Z,19.5
2022-09-12T11:25:53.038Z,19.25
2022-09-12T11:55:53.046Z,20.38
2022-09-12T12:25:53.080Z,21.13
2022-09-12T12:55:53.046Z,22.06
2022-09-12T13:25:53.034Z,22.75
2022-09-12T13:55:53.051Z,22.63
2022-09-12T14:25:53.077Z,22.81
2022-09-12T14:55:53.056Z,22.44
2022-09-12T15:25:53.077Z,22.69
2022-09-12T15:55:53.095Z,22.38
2022-09-12T16:25:53.082Z,22.19
2022-09-12T16:55:53.080Z,20.75
2022-09-12T17:25:53.097Z,19.38
2022-09-12T17:55:54.308Z,17.69
2022-09-12T18:25:53.098Z,16.88
2022-09-12T18:55:53.102Z,16.38
2022-09-12T19:25:53.114Z,15.94
2022-09-12T19:55:53.123Z,15.5
2022-09-12T20:25:53.123Z,15.13
2022-09-12T20:55:53.126Z,14.81
2022-09-12T21:25:53.114Z,14.5
2022-09-12T21:55:53.129Z,14.19
2022-09-12T22:25:53.106Z,13.88
2022-09-12T22:55:53.132Z,13.56
2022-09-12T23:25:53.153Z,13.31
2022-09-12T23:55:53.163Z,13.06
